MMTJ/TIJ METAR and TAF weather

Enter ICAO airport designator
Station Type Date Time Source
MMTJ METAR 2020/07/10 20:44 UTC NOAA

MMTJ 102044Z 27015KT 7SM SKC 28/17 A3000 RMK SLP/// 54000 921 HZY ISOL CI


Station Type Date Time Source
MMTJ Decoded METAR 2020/07/10 20:44 UTC NOAA

Tijuana International Airport , Mexico (MMTJ) 32-33N 116-58W
Jul 10, 2020 - 04:44 PM EDT / 2020.07.10 2044 UTC
Wind: from the W (270 degrees) at 17 MPH (15 KT):0
Visibility: 7 mile(s):0
Sky conditions: clear
Temperature: 82 F (28 C)
Dew Point: 62 F (17 C)
Relative Humidity: 51%
Pressure (altimeter): 30 in. Hg (1015 hPa)
Pressure tendency: the same as three hours ago
ob: MMTJ 102044Z 27015KT 7SM SKC 28/17 A3000 RMK SLP/// 54000 921 HZY ISOL CI
cycle: 20

Station Type Date Time Source
MMTJ TAF 2020/07/10 18:51 UTC NOAA

TAF MMTJ 101643Z 1018/1124 29012KT 4SM HZ SKC TX28/1022Z TN18/1114Z
FM102100 24010KT P6SM SKC
FM111000 00000KT 3SM BR OVC005
FM111600 24010KT P6SM SKC

Example: see airport list